This is the latest recevied weather packets stored in our database for station/object HB9Y1. If no packets are shown the sender has not sent any weather packets the latest 10 day(s).
| Time | Temp. | Humidity | Pressure | Rain* | Wind** | Luminosity | Snow |
|---|---|---|---|---|---|---|---|
| 1777527219 | 5.56° C | 82% | 1017.6 hPa | 0 mm | - | 30 W/m² | - |
| 1777522399 | 6.11° C | 82% | 1016.9 hPa | 0 mm | - | 1 W/m² | - |
| 1777519407 | 6.11° C | 80% | 1016.9 hPa | 0 mm | - | 0 W/m² | - |
| 1777518228 | 6.11° C | 80% | 1016.9 hPa | 0 mm | - | 0 W/m² | - |
| 1777511599 | 6.11° C | 82% | 1017.1 hPa | 0 mm | - | 0 W/m² | - |
| 1777508608 | 6.11° C | 81% | 1017.1 hPa | 0 mm | - | 0 W/m² | - |
| 1777505599 | 5.56° C | 83% | 1017.2 hPa | 0 mm | - | 0 W/m² | - |
| 1777501999 | 6.11° C | 85% | 1016.9 hPa | 0 mm | - | 0 W/m² | - |
| 1777498399 | 5.56° C | 87% | 1016.6 hPa | 0 mm | - | 0 W/m² | - |
| 1777496607 | 6.11° C | 91% | 1016.9 hPa | 0 mm | - | 0 W/m² | - |
| 1777494799 | 6.11° C | 91% | 1016.9 hPa | 0 mm | - | 0 W/m² | - |
| 1777487598 | 6.11° C | 99% | 1015.7 hPa | 0 mm | - | 2 W/m² | - |
| 1777485218 | 6.67° C | 99% | 1015.7 hPa | 0 mm | - | 19 W/m² | - |
| 1777481598 | 7.78° C | 93% | 1015.6 hPa | 0 mm | - | 192 W/m² | - |
| 1777476206 | 10° C | 82% | 1015.1 hPa | 0 mm | - | 220 W/m² | - |
| 1777474398 | 11.11° C | 80% | 1015.2 hPa | 0 mm | - | 224 W/m² | - |
| 1777468398 | 12.22° C | 72% | 1014.9 hPa | 0 mm | - | 380 W/m² | - |
| 1777461826 | 11.67° C | 72% | 1014.9 hPa | 0 mm | - | 809 W/m² | - |
| 1777454602 | 8.33° C | 82% | 1014.9 hPa | 0 mm | - | 292 W/m² | - |
| 1777453406 | 8.33° C | 88% | 1014.9 hPa | 0 mm | - | 249 W/m² | - |
| 1777448606 | 7.78° C | 93% | 1014.9 hPa | 0 mm | - | 207 W/m² | - |
| 1777439006 | 5.56° C | 90% | 1014.5 hPa | 0 mm | - | 17 W/m² | - |
| 1777429406 | 5° C | 98% | 1014.5 hPa | 0 mm | - | 0 W/m² | - |
| 1777427598 | 5° C | 97% | 1014.5 hPa | 0 mm | - | 0 W/m² | - |
| 1777422798 | 4.44° C | 99% | 1014.9 hPa | 0 mm | - | 0 W/m² | - |
* Rain latest hour (hover to see other rain measurements)
** Current wind speed in m/s (hover to see current wind gust speed)